sensor_id;sensor_type;location;lat;lon;timestamp;P1;durP1;ratioP1;P2;durP2;ratioP2
29344;SDS011;16339;48.748;2.222;2022-10-18T00:02:07;27.10;;;13.93;;
29344;SDS011;16339;48.748;2.222;2022-10-18T00:04:37;23.92;;;12.75;;
29344;SDS011;16339;48.748;2.222;2022-10-18T00:07:07;23.83;;;12.48;;
29344;SDS011;16339;48.748;2.222;2022-10-18T00:09:37;22.15;;;11.15;;
29344;SDS011;16339;48.748;2.222;2022-10-18T00:12:07;21.90;;;11.32;;
29344;SDS011;16339;48.748;2.222;2022-10-18T00:14:36;16.73;;;10.80;;
29344;SDS011;16339;48.748;2.222;2022-10-18T00:17:08;21.35;;;12.10;;
29344;SDS011;16339;48.748;2.222;2022-10-18T00:19:38;24.00;;;12.15;;
29344;SDS011;16339;48.748;2.222;2022-10-18T00:22:08;24.08;;;12.38;;
29344;SDS011;16339;48.748;2.222;2022-10-18T00:24:38;21.45;;;11.70;;
29344;SDS011;16339;48.748;2.222;2022-10-18T00:27:08;22.65;;;12.05;;
29344;SDS011;16339;48.748;2.222;2022-10-18T00:29:37;19.88;;;11.40;;
29344;SDS011;16339;48.748;2.222;2022-10-18T00:32:09;24.67;;;11.82;;
29344;SDS011;16339;48.748;2.222;2022-10-18T00:34:39;21.45;;;12.65;;
29344;SDS011;16339;48.748;2.222;2022-10-18T00:37:09;25.05;;;12.73;;
29344;SDS011;16339;48.748;2.222;2022-10-18T00:39:39;20.80;;;11.18;;
29344;SDS011;16339;48.748;2.222;2022-10-18T00:42:09;22.08;;;11.68;;
29344;SDS011;16339;48.748;2.222;2022-10-18T00:44:59;23.70;;;12.35;;
29344;SDS011;16339;48.748;2.222;2022-10-18T00:47:39;21.40;;;11.27;;
29344;SDS011;16339;48.748;2.222;2022-10-18T00:50:10;24.00;;;13.45;;
29344;SDS011;16339;48.748;2.222;2022-10-18T00:52:41;21.77;;;12.73;;
29344;SDS011;16339;48.748;2.222;2022-10-18T00:55:14;26.92;;;12.10;;
29344;SDS011;16339;48.748;2.222;2022-10-18T00:57:44;23.80;;;12.23;;
29344;SDS011;16339;48.748;2.222;2022-10-18T01:00:14;28.10;;;13.15;;
29344;SDS011;16339;48.748;2.222;2022-10-18T01:02:47;22.30;;;11.57;;
29344;SDS011;16339;48.748;2.222;2022-10-18T01:05:17;26.48;;;11.40;;
29344;SDS011;16339;48.748;2.222;2022-10-18T01:08:01;30.40;;;13.38;;
29344;SDS011;16339;48.748;2.222;2022-10-18T01:10:45;28.05;;;11.48;;
29344;SDS011;16339;48.748;2.222;2022-10-18T01:13:25;23.20;;;11.85;;
29344;SDS011;16339;48.748;2.222;2022-10-18T01:16:04;25.02;;;13.25;;
29344;SDS011;16339;48.748;2.222;2022-10-18T01:18:45;33.63;;;12.15;;
29344;SDS011;16339;48.748;2.222;2022-10-18T01:21:18;20.27;;;11.98;;
29344;SDS011;16339;48.748;2.222;2022-10-18T01:27:11;23.90;;;12.63;;
29344;SDS011;16339;48.748;2.222;2022-10-18T01:30:03;31.75;;;12.90;;
29344;SDS011;16339;48.748;2.222;2022-10-18T01:33:01;36.33;;;14.07;;
29344;SDS011;16339;48.748;2.222;2022-10-18T01:35:36;19.35;;;11.93;;
29344;SDS011;16339;48.748;2.222;2022-10-18T01:38:10;29.38;;;13.63;;
29344;SDS011;16339;48.748;2.222;2022-10-18T01:40:44;34.40;;;13.13;;
29344;SDS011;16339;48.748;2.222;2022-10-18T01:43:15;23.45;;;11.93;;
29344;SDS011;16339;48.748;2.222;2022-10-18T01:45:50;22.60;;;11.98;;
29344;SDS011;16339;48.748;2.222;2022-10-18T01:48:22;27.63;;;12.30;;
29344;SDS011;16339;48.748;2.222;2022-10-18T01:50:51;28.23;;;11.88;;
29344;SDS011;16339;48.748;2.222;2022-10-18T01:53:26;26.92;;;11.70;;
29344;SDS011;16339;48.748;2.222;2022-10-18T01:56:04;25.40;;;11.63;;
29344;SDS011;16339;48.748;2.222;2022-10-18T01:58:45;22.95;;;12.30;;
29344;SDS011;16339;48.748;2.222;2022-10-18T02:01:27;26.85;;;11.95;;
29344;SDS011;16339;48.748;2.222;2022-10-18T02:04:04;28.25;;;12.13;;
29344;SDS011;16339;48.748;2.222;2022-10-18T02:06:41;25.83;;;12.60;;
29344;SDS011;16339;48.748;2.222;2022-10-18T02:09:15;27.08;;;13.43;;
29344;SDS011;16339;48.748;2.222;2022-10-18T02:11:50;26.25;;;12.50;;
29344;SDS011;16339;48.748;2.222;2022-10-18T02:14:22;26.95;;;13.38;;
29344;SDS011;16339;48.748;2.222;2022-10-18T02:16:57;26.25;;;13.15;;
29344;SDS011;16339;48.748;2.222;2022-10-18T02:19:31;29.88;;;14.15;;
29344;SDS011;16339;48.748;2.222;2022-10-18T02:22:05;47.00;;;14.70;;
29344;SDS011;16339;48.748;2.222;2022-10-18T02:24:37;42.35;;;13.48;;
29344;SDS011;16339;48.748;2.222;2022-10-18T02:27:10;39.90;;;13.30;;
29344;SDS011;16339;48.748;2.222;2022-10-18T02:29:40;31.98;;;12.80;;
29344;SDS011;16339;48.748;2.222;2022-10-18T02:32:14;30.27;;;13.00;;
29344;SDS011;16339;48.748;2.222;2022-10-18T02:34:49;38.25;;;13.40;;
29344;SDS011;16339;48.748;2.222;2022-10-18T02:37:25;38.75;;;13.15;;
29344;SDS011;16339;48.748;2.222;2022-10-18T02:39:58;35.00;;;13.43;;
29344;SDS011;16339;48.748;2.222;2022-10-18T02:42:31;123.40;;;20.48;;
29344;SDS011;16339;48.748;2.222;2022-10-18T02:45:03;69.43;;;16.60;;
29344;SDS011;16339;48.748;2.222;2022-10-18T02:47:36;32.63;;;13.73;;
29344;SDS011;16339;48.748;2.222;2022-10-18T02:50:06;28.88;;;12.45;;
29344;SDS011;16339;48.748;2.222;2022-10-18T02:52:36;21.50;;;11.40;;
29344;SDS011;16339;48.748;2.222;2022-10-18T02:55:06;25.10;;;11.85;;
29344;SDS011;16339;48.748;2.222;2022-10-18T02:57:36;31.73;;;10.20;;
29344;SDS011;16339;48.748;2.222;2022-10-18T03:00:07;32.72;;;10.38;;
29344;SDS011;16339;48.748;2.222;2022-10-18T03:02:40;26.63;;;11.30;;
29344;SDS011;16339;48.748;2.222;2022-10-18T03:05:10;25.80;;;10.80;;
29344;SDS011;16339;48.748;2.222;2022-10-18T03:07:39;35.05;;;10.73;;
29344;SDS011;16339;48.748;2.222;2022-10-18T03:10:09;44.83;;;13.48;;
29344;SDS011;16339;48.748;2.222;2022-10-18T03:12:38;58.47;;;12.70;;
29344;SDS011;16339;48.748;2.222;2022-10-18T03:15:09;86.55;;;14.27;;
29344;SDS011;16339;48.748;2.222;2022-10-18T03:17:41;134.90;;;16.30;;
29344;SDS011;16339;48.748;2.222;2022-10-18T03:20:11;96.13;;;16.75;;
29344;SDS011;16339;48.748;2.222;2022-10-18T03:22:42;122.28;;;17.52;;
29344;SDS011;16339;48.748;2.222;2022-10-18T03:25:11;127.50;;;19.20;;
29344;SDS011;16339;48.748;2.222;2022-10-18T03:27:41;308.52;;;21.88;;
29344;SDS011;16339;48.748;2.222;2022-10-18T03:30:10;200.55;;;21.00;;
29344;SDS011;16339;48.748;2.222;2022-10-18T03:32:42;88.88;;;17.63;;
29344;SDS011;16339;48.748;2.222;2022-10-18T03:35:11;69.10;;;15.98;;
29344;SDS011;16339;48.748;2.222;2022-10-18T03:37:41;200.60;;;19.38;;
29344;SDS011;16339;48.748;2.222;2022-10-18T03:40:11;151.75;;;15.88;;
29344;SDS011;16339;48.748;2.222;2022-10-18T03:42:40;63.10;;;13.00;;
29344;SDS011;16339;48.748;2.222;2022-10-18T03:45:10;144.10;;;16.70;;
29344;SDS011;16339;48.748;2.222;2022-10-18T03:47:42;94.53;;;16.05;;
29344;SDS011;16339;48.748;2.222;2022-10-18T03:50:12;95.30;;;15.02;;
29344;SDS011;16339;48.748;2.222;2022-10-18T03:52:41;211.95;;;19.23;;
29344;SDS011;16339;48.748;2.222;2022-10-18T03:55:11;113.97;;;17.67;;
29344;SDS011;16339;48.748;2.222;2022-10-18T03:57:41;157.35;;;16.85;;
29344;SDS011;16339;48.748;2.222;2022-10-18T04:00:11;88.10;;;14.32;;
29344;SDS011;16339;48.748;2.222;2022-10-18T04:02:44;49.17;;;12.07;;
29344;SDS011;16339;48.748;2.222;2022-10-18T04:05:15;41.20;;;12.25;;
29344;SDS011;16339;48.748;2.222;2022-10-18T04:07:45;58.13;;;11.40;;
29344;SDS011;16339;48.748;2.222;2022-10-18T04:10:14;64.50;;;10.57;;
29344;SDS011;16339;48.748;2.222;2022-10-18T04:12:44;55.42;;;10.00;;
29344;SDS011;16339;48.748;2.222;2022-10-18T04:15:13;44.95;;;10.20;;
29344;SDS011;16339;48.748;2.222;2022-10-18T04:17:46;42.50;;;10.13;;
29344;SDS011;16339;48.748;2.222;2022-10-18T04:20:17;33.53;;;9.88;;
29344;SDS011;16339;48.748;2.222;2022-10-18T04:22:47;31.40;;;9.55;;
29344;SDS011;16339;48.748;2.222;2022-10-18T04:25:16;27.27;;;10.13;;
29344;SDS011;16339;48.748;2.222;2022-10-18T04:27:46;26.23;;;11.02;;
29344;SDS011;16339;48.748;2.222;2022-10-18T04:30:16;31.02;;;11.63;;
29344;SDS011;16339;48.748;2.222;2022-10-18T04:32:49;53.80;;;11.60;;
29344;SDS011;16339;48.748;2.222;2022-10-18T04:35:19;79.93;;;13.07;;
29344;SDS011;16339;48.748;2.222;2022-10-18T04:37:50;41.03;;;13.00;;
29344;SDS011;16339;48.748;2.222;2022-10-18T04:40:20;41.13;;;14.30;;
29344;SDS011;16339;48.748;2.222;2022-10-18T04:42:50;40.88;;;14.68;;
29344;SDS011;16339;48.748;2.222;2022-10-18T04:45:21;49.90;;;15.50;;
29344;SDS011;16339;48.748;2.222;2022-10-18T04:47:54;70.95;;;17.35;;
29344;SDS011;16339;48.748;2.222;2022-10-18T04:50:23;103.55;;;18.25;;
29344;SDS011;16339;48.748;2.222;2022-10-18T04:52:53;72.82;;;17.33;;
29344;SDS011;16339;48.748;2.222;2022-10-18T04:55:23;65.70;;;16.20;;
29344;SDS011;16339;48.748;2.222;2022-10-18T04:57:54;75.63;;;16.67;;
29344;SDS011;16339;48.748;2.222;2022-10-18T05:00:24;54.95;;;14.82;;
29344;SDS011;16339;48.748;2.222;2022-10-18T05:02:58;66.18;;;17.70;;
29344;SDS011;16339;48.748;2.222;2022-10-18T05:05:28;44.08;;;14.82;;
29344;SDS011;16339;48.748;2.222;2022-10-18T05:07:57;44.35;;;15.77;;
29344;SDS011;16339;48.748;2.222;2022-10-18T05:10:27;50.45;;;14.98;;
29344;SDS011;16339;48.748;2.222;2022-10-18T05:12:57;53.70;;;15.40;;
29344;SDS011;16339;48.748;2.222;2022-10-18T05:15:27;46.65;;;15.95;;
29344;SDS011;16339;48.748;2.222;2022-10-18T05:18:00;66.53;;;14.95;;
29344;SDS011;16339;48.748;2.222;2022-10-18T05:20:30;81.50;;;17.00;;
29344;SDS011;16339;48.748;2.222;2022-10-18T05:23:00;68.95;;;17.88;;
29344;SDS011;16339;48.748;2.222;2022-10-18T05:25:30;55.75;;;15.90;;
29344;SDS011;16339;48.748;2.222;2022-10-18T05:28:00;51.67;;;15.95;;
29344;SDS011;16339;48.748;2.222;2022-10-18T05:30:30;69.30;;;16.08;;
29344;SDS011;16339;48.748;2.222;2022-10-18T05:33:03;83.90;;;16.95;;
29344;SDS011;16339;48.748;2.222;2022-10-18T05:35:34;60.88;;;17.23;;
29344;SDS011;16339;48.748;2.222;2022-10-18T05:38:04;65.50;;;18.65;;
29344;SDS011;16339;48.748;2.222;2022-10-18T05:40:36;53.17;;;16.83;;
29344;SDS011;16339;48.748;2.222;2022-10-18T05:43:06;48.95;;;15.95;;
29344;SDS011;16339;48.748;2.222;2022-10-18T05:45:36;59.65;;;17.58;;
29344;SDS011;16339;48.748;2.222;2022-10-18T05:48:09;50.33;;;17.20;;
29344;SDS011;16339;48.748;2.222;2022-10-18T05:50:38;52.60;;;17.20;;
29344;SDS011;16339;48.748;2.222;2022-10-18T05:53:09;54.72;;;18.15;;
29344;SDS011;16339;48.748;2.222;2022-10-18T05:55:39;70.75;;;19.52;;
29344;SDS011;16339;48.748;2.222;2022-10-18T05:58:08;69.95;;;21.88;;
29344;SDS011;16339;48.748;2.222;2022-10-18T06:00:38;58.63;;;19.88;;
29344;SDS011;16339;48.748;2.222;2022-10-18T06:03:11;53.63;;;18.75;;
29344;SDS011;16339;48.748;2.222;2022-10-18T06:05:42;49.40;;;16.77;;
29344;SDS011;16339;48.748;2.222;2022-10-18T06:08:12;48.53;;;15.73;;
29344;SDS011;16339;48.748;2.222;2022-10-18T06:10:42;49.47;;;15.48;;
29344;SDS011;16339;48.748;2.222;2022-10-18T06:13:12;50.15;;;15.48;;
29344;SDS011;16339;48.748;2.222;2022-10-18T06:15:41;39.72;;;14.98;;
29344;SDS011;16339;48.748;2.222;2022-10-18T06:18:14;40.83;;;13.73;;
29344;SDS011;16339;48.748;2.222;2022-10-18T06:20:43;45.05;;;13.77;;
29344;SDS011;16339;48.748;2.222;2022-10-18T06:23:13;41.30;;;14.13;;
29344;SDS011;16339;48.748;2.222;2022-10-18T06:25:42;42.03;;;15.55;;
29344;SDS011;16339;48.748;2.222;2022-10-18T06:28:12;44.72;;;16.35;;
29344;SDS011;16339;48.748;2.222;2022-10-18T06:30:42;52.35;;;16.77;;
29344;SDS011;16339;48.748;2.222;2022-10-18T06:33:15;48.90;;;17.57;;
29344;SDS011;16339;48.748;2.222;2022-10-18T06:35:52;63.47;;;20.33;;
29344;SDS011;16339;48.748;2.222;2022-10-18T06:38:23;53.55;;;17.48;;
29344;SDS011;16339;48.748;2.222;2022-10-18T06:40:55;71.55;;;20.48;;
29344;SDS011;16339;48.748;2.222;2022-10-18T06:43:26;68.35;;;20.83;;
29344;SDS011;16339;48.748;2.222;2022-10-18T06:45:55;59.25;;;19.77;;
29344;SDS011;16339;48.748;2.222;2022-10-18T06:48:29;55.10;;;19.63;;
29344;SDS011;16339;48.748;2.222;2022-10-18T06:51:00;55.95;;;20.42;;
29344;SDS011;16339;48.748;2.222;2022-10-18T06:53:32;60.65;;;19.65;;
29344;SDS011;16339;48.748;2.222;2022-10-18T06:56:04;70.15;;;20.77;;
29344;SDS011;16339;48.748;2.222;2022-10-18T06:58:51;59.10;;;19.63;;
29344;SDS011;16339;48.748;2.222;2022-10-18T07:01:46;55.08;;;18.25;;
29344;SDS011;16339;48.748;2.222;2022-10-18T07:04:30;51.95;;;17.08;;
29344;SDS011;16339;48.748;2.222;2022-10-18T07:06:58;60.50;;;18.63;;
29344;SDS011;16339;48.748;2.222;2022-10-18T07:09:27;57.95;;;17.92;;
29344;SDS011;16339;48.748;2.222;2022-10-18T07:11:56;58.55;;;19.38;;
29344;SDS011;16339;48.748;2.222;2022-10-18T07:14:24;66.43;;;20.35;;
29344;SDS011;16339;48.748;2.222;2022-10-18T07:16:53;67.40;;;20.73;;
29344;SDS011;16339;48.748;2.222;2022-10-18T07:19:24;66.07;;;21.73;;
29344;SDS011;16339;48.748;2.222;2022-10-18T07:21:53;54.72;;;19.45;;
29344;SDS011;16339;48.748;2.222;2022-10-18T07:24:22;52.50;;;20.00;;
29344;SDS011;16339;48.748;2.222;2022-10-18T07:26:50;46.22;;;18.52;;
29344;SDS011;16339;48.748;2.222;2022-10-18T07:29:19;46.60;;;18.65;;
29344;SDS011;16339;48.748;2.222;2022-10-18T07:31:48;52.88;;;20.05;;
29344;SDS011;16339;48.748;2.222;2022-10-18T07:34:16;53.80;;;18.70;;
29344;SDS011;16339;48.748;2.222;2022-10-18T07:36:47;49.28;;;18.35;;
29344;SDS011;16339;48.748;2.222;2022-10-18T07:39:16;49.33;;;18.90;;
29344;SDS011;16339;48.748;2.222;2022-10-18T07:41:45;50.20;;;19.10;;
29344;SDS011;16339;48.748;2.222;2022-10-18T07:44:14;49.60;;;19.08;;
29344;SDS011;16339;48.748;2.222;2022-10-18T07:46:42;46.05;;;18.42;;
29344;SDS011;16339;48.748;2.222;2022-10-18T07:49:11;49.42;;;20.48;;
29344;SDS011;16339;48.748;2.222;2022-10-18T07:51:40;45.45;;;19.88;;
29344;SDS011;16339;48.748;2.222;2022-10-18T07:54:11;42.65;;;18.10;;
29344;SDS011;16339;48.748;2.222;2022-10-18T07:56:39;43.15;;;18.38;;
29344;SDS011;16339;48.748;2.222;2022-10-18T07:59:09;42.83;;;18.25;;
29344;SDS011;16339;48.748;2.222;2022-10-18T08:01:38;38.50;;;17.15;;
29344;SDS011;16339;48.748;2.222;2022-10-18T08:04:07;42.20;;;17.95;;
29344;SDS011;16339;48.748;2.222;2022-10-18T08:06:36;38.10;;;17.85;;
29344;SDS011;16339;48.748;2.222;2022-10-18T08:09:04;39.35;;;16.73;;
29344;SDS011;16339;48.748;2.222;2022-10-18T08:11:35;32.55;;;16.23;;
29344;SDS011;16339;48.748;2.222;2022-10-18T08:14:05;32.88;;;17.08;;
29344;SDS011;16339;48.748;2.222;2022-10-18T08:16:34;38.60;;;17.02;;
29344;SDS011;16339;48.748;2.222;2022-10-18T08:19:02;41.15;;;17.17;;
29344;SDS011;16339;48.748;2.222;2022-10-18T08:21:31;48.20;;;18.42;;
29344;SDS011;16339;48.748;2.222;2022-10-18T08:24:00;36.45;;;16.10;;
29344;SDS011;16339;48.748;2.222;2022-10-18T08:26:28;27.65;;;13.85;;
29344;SDS011;16339;48.748;2.222;2022-10-18T08:29:00;21.55;;;10.35;;
29344;SDS011;16339;48.748;2.222;2022-10-18T08:31:28;19.30;;;10.02;;
29344;SDS011;16339;48.748;2.222;2022-10-18T08:33:57;19.95;;;10.45;;
29344;SDS011;16339;48.748;2.222;2022-10-18T08:36:26;21.05;;;11.43;;
29344;SDS011;16339;48.748;2.222;2022-10-18T08:38:54;21.10;;;10.63;;
29344;SDS011;16339;48.748;2.222;2022-10-18T08:41:31;20.02;;;10.40;;
29344;SDS011;16339;48.748;2.222;2022-10-18T08:44:14;13.48;;;8.00;;
29344;SDS011;16339;48.748;2.222;2022-10-18T08:49:24;21.15;;;9.95;;
29344;SDS011;16339;48.748;2.222;2022-10-18T08:51:55;18.60;;;8.73;;
29344;SDS011;16339;48.748;2.222;2022-10-18T08:54:26;17.42;;;9.40;;
29344;SDS011;16339;48.748;2.222;2022-10-18T08:57:03;15.68;;;9.30;;
29344;SDS011;16339;48.748;2.222;2022-10-18T08:59:40;19.35;;;8.95;;
29344;SDS011;16339;48.748;2.222;2022-10-18T09:02:14;17.35;;;9.05;;
29344;SDS011;16339;48.748;2.222;2022-10-18T09:04:50;19.52;;;9.70;;
29344;SDS011;16339;48.748;2.222;2022-10-18T09:07:32;17.35;;;9.90;;
29344;SDS011;16339;48.748;2.222;2022-10-18T09:10:17;20.95;;;8.57;;
29344;SDS011;16339;48.748;2.222;2022-10-18T09:13:04;19.77;;;9.13;;
29344;SDS011;16339;48.748;2.222;2022-10-18T09:15:58;19.08;;;9.95;;
29344;SDS011;16339;48.748;2.222;2022-10-18T09:18:36;14.35;;;8.68;;
29344;SDS011;16339;48.748;2.222;2022-10-18T09:21:15;16.85;;;8.98;;
29344;SDS011;16339;48.748;2.222;2022-10-18T09:23:47;14.88;;;9.50;;
29344;SDS011;16339;48.748;2.222;2022-10-18T09:26:22;16.95;;;8.18;;
29344;SDS011;16339;48.748;2.222;2022-10-18T09:28:56;11.20;;;8.15;;
29344;SDS011;16339;48.748;2.222;2022-10-18T09:31:39;17.20;;;8.57;;
29344;SDS011;16339;48.748;2.222;2022-10-18T09:34:13;14.23;;;7.40;;
29344;SDS011;16339;48.748;2.222;2022-10-18T09:36:52;14.07;;;8.68;;
29344;SDS011;16339;48.748;2.222;2022-10-18T09:39:22;11.27;;;7.93;;
29344;SDS011;16339;48.748;2.222;2022-10-18T09:41:55;20.98;;;8.57;;
29344;SDS011;16339;48.748;2.222;2022-10-18T09:44:27;15.88;;;8.02;;
29344;SDS011;16339;48.748;2.222;2022-10-18T09:47:04;14.13;;;7.90;;
29344;SDS011;16339;48.748;2.222;2022-10-18T09:49:39;15.38;;;7.78;;
29344;SDS011;16339;48.748;2.222;2022-10-18T09:52:12;10.45;;;7.30;;
29344;SDS011;16339;48.748;2.222;2022-10-18T09:54:46;15.40;;;8.07;;
29344;SDS011;16339;48.748;2.222;2022-10-18T09:57:21;11.90;;;6.95;;
29344;SDS011;16339;48.748;2.222;2022-10-18T09:59:53;13.70;;;7.63;;
29344;SDS011;16339;48.748;2.222;2022-10-18T10:02:24;11.77;;;7.70;;
29344;SDS011;16339;48.748;2.222;2022-10-18T10:04:53;9.13;;;6.88;;
29344;SDS011;16339;48.748;2.222;2022-10-18T10:07:23;14.43;;;7.65;;
29344;SDS011;16339;48.748;2.222;2022-10-18T10:09:56;15.13;;;8.52;;
29344;SDS011;16339;48.748;2.222;2022-10-18T10:12:27;14.35;;;8.88;;
29344;SDS011;16339;48.748;2.222;2022-10-18T10:15:08;10.20;;;7.57;;
29344;SDS011;16339;48.748;2.222;2022-10-18T10:17:48;7.93;;;6.57;;
29344;SDS011;16339;48.748;2.222;2022-10-18T10:20:22;9.35;;;6.68;;
29344;SDS011;16339;48.748;2.222;2022-10-18T10:22:52;9.05;;;6.20;;
29344;SDS011;16339;48.748;2.222;2022-10-18T10:25:24;10.35;;;7.13;;
29344;SDS011;16339;48.748;2.222;2022-10-18T10:28:00;10.35;;;7.20;;
29344;SDS011;16339;48.748;2.222;2022-10-18T10:30:30;13.73;;;9.10;;
29344;SDS011;16339;48.748;2.222;2022-10-18T10:33:04;13.63;;;9.05;;
29344;SDS011;16339;48.748;2.222;2022-10-18T10:35:34;17.67;;;10.05;;
29344;SDS011;16339;48.748;2.222;2022-10-18T10:38:04;16.92;;;10.00;;
29344;SDS011;16339;48.748;2.222;2022-10-18T10:40:33;14.60;;;10.32;;
29344;SDS011;16339;48.748;2.222;2022-10-18T10:43:15;19.23;;;10.70;;
29344;SDS011;16339;48.748;2.222;2022-10-18T10:45:58;19.08;;;10.95;;
29344;SDS011;16339;48.748;2.222;2022-10-18T10:51:06;14.80;;;9.48;;
29344;SDS011;16339;48.748;2.222;2022-10-18T10:53:39;15.30;;;8.70;;
29344;SDS011;16339;48.748;2.222;2022-10-18T10:56:16;13.63;;;6.47;;
29344;SDS011;16339;48.748;2.222;2022-10-18T10:58:50;7.25;;;4.82;;
29344;SDS011;16339;48.748;2.222;2022-10-18T11:01:25;8.88;;;4.00;;
29344;SDS011;16339;48.748;2.222;2022-10-18T11:04:02;5.65;;;3.67;;
29344;SDS011;16339;48.748;2.222;2022-10-18T11:06:56;7.60;;;3.70;;
29344;SDS011;16339;48.748;2.222;2022-10-18T11:09:38;5.68;;;3.50;;
29344;SDS011;16339;48.748;2.222;2022-10-18T11:12:20;6.22;;;3.30;;
29344;SDS011;16339;48.748;2.222;2022-10-18T11:14:56;5.55;;;3.45;;
29344;SDS011;16339;48.748;2.222;2022-10-18T11:17:36;7.30;;;3.10;;
29344;SDS011;16339;48.748;2.222;2022-10-18T11:20:14;5.25;;;3.20;;
29344;SDS011;16339;48.748;2.222;2022-10-18T11:22:53;8.40;;;2.90;;
29344;SDS011;16339;48.748;2.222;2022-10-18T11:25:30;5.32;;;3.00;;
29344;SDS011;16339;48.748;2.222;2022-10-18T11:28:18;5.00;;;2.35;;
29344;SDS011;16339;48.748;2.222;2022-10-18T11:31:01;9.23;;;2.50;;
29344;SDS011;16339;48.748;2.222;2022-10-18T11:33:41;3.28;;;2.03;;
29344;SDS011;16339;48.748;2.222;2022-10-18T11:36:28;9.15;;;2.08;;
29344;SDS011;16339;48.748;2.222;2022-10-18T11:39:06;3.53;;;2.17;;
29344;SDS011;16339;48.748;2.222;2022-10-18T11:41:42;5.30;;;1.77;;
29344;SDS011;16339;48.748;2.222;2022-10-18T11:44:21;5.13;;;2.05;;
29344;SDS011;16339;48.748;2.222;2022-10-18T11:46:59;6.80;;;2.00;;
29344;SDS011;16339;48.748;2.222;2022-10-18T11:49:40;7.10;;;2.10;;
29344;SDS011;16339;48.748;2.222;2022-10-18T11:52:32;4.32;;;1.67;;
29344;SDS011;16339;48.748;2.222;2022-10-18T11:55:18;2.05;;;1.27;;
29344;SDS011;16339;48.748;2.222;2022-10-18T11:58:02;2.53;;;1.33;;
29344;SDS011;16339;48.748;2.222;2022-10-18T12:00:45;1.60;;;1.17;;
29344;SDS011;16339;48.748;2.222;2022-10-18T12:06:17;2.63;;;1.30;;
29344;SDS011;16339;48.748;2.222;2022-10-18T12:08:52;2.67;;;1.33;;
29344;SDS011;16339;48.748;2.222;2022-10-18T12:11:25;4.45;;;1.38;;
29344;SDS011;16339;48.748;2.222;2022-10-18T12:13:58;4.10;;;1.42;;
29344;SDS011;16339;48.748;2.222;2022-10-18T12:16:29;2.08;;;1.60;;
29344;SDS011;16339;48.748;2.222;2022-10-18T12:19:03;3.38;;;1.40;;
29344;SDS011;16339;48.748;2.222;2022-10-18T12:21:39;3.40;;;1.50;;
29344;SDS011;16339;48.748;2.222;2022-10-18T12:24:13;3.60;;;1.30;;
29344;SDS011;16339;48.748;2.222;2022-10-18T12:26:44;3.60;;;1.60;;
29344;SDS011;16339;48.748;2.222;2022-10-18T12:29:27;2.58;;;1.30;;
29344;SDS011;16339;48.748;2.222;2022-10-18T12:32:04;2.30;;;1.60;;
29344;SDS011;16339;48.748;2.222;2022-10-18T12:34:36;2.45;;;1.30;;
29344;SDS011;16339;48.748;2.222;2022-10-18T12:37:13;2.58;;;1.55;;
29344;SDS011;16339;48.748;2.222;2022-10-18T12:39:56;2.13;;;1.30;;
29344;SDS011;16339;48.748;2.222;2022-10-18T12:42:30;3.50;;;1.10;;
29344;SDS011;16339;48.748;2.222;2022-10-18T12:47:29;3.90;;;1.40;;
29344;SDS011;16339;48.748;2.222;2022-10-18T12:50:00;4.20;;;1.30;;
29344;SDS011;16339;48.748;2.222;2022-10-18T12:52:32;2.53;;;1.30;;
29344;SDS011;16339;48.748;2.222;2022-10-18T12:58:03;6.38;;;1.40;;
29344;SDS011;16339;48.748;2.222;2022-10-18T13:00:52;6.50;;;1.38;;
29344;SDS011;16339;48.748;2.222;2022-10-18T13:06:21;3.17;;;1.50;;
29344;SDS011;16339;48.748;2.222;2022-10-18T13:11:46;4.95;;;1.33;;
29344;SDS011;16339;48.748;2.222;2022-10-18T13:14:18;7.20;;;1.30;;
29344;SDS011;16339;48.748;2.222;2022-10-18T13:17:14;6.93;;;1.38;;
29344;SDS011;16339;48.748;2.222;2022-10-18T13:19:52;2.92;;;1.30;;
29344;SDS011;16339;48.748;2.222;2022-10-18T13:22:47;2.15;;;1.20;;
29344;SDS011;16339;48.748;2.222;2022-10-18T13:25:26;3.67;;;1.40;;
29344;SDS011;16339;48.748;2.222;2022-10-18T13:28:03;4.70;;;1.50;;
29344;SDS011;16339;48.748;2.222;2022-10-18T13:30:47;4.03;;;1.35;;
29344;SDS011;16339;48.748;2.222;2022-10-18T13:33:31;2.42;;;1.40;;
29344;SDS011;16339;48.748;2.222;2022-10-18T13:36:03;2.50;;;1.70;;
29344;SDS011;16339;48.748;2.222;2022-10-18T13:38:36;1.85;;;1.20;;
29344;SDS011;16339;48.748;2.222;2022-10-18T13:41:10;4.80;;;1.75;;
29344;SDS011;16339;48.748;2.222;2022-10-18T13:49:50;1.63;;;1.20;;
29344;SDS011;16339;48.748;2.222;2022-10-18T13:55:44;6.25;;;1.50;;
29344;SDS011;16339;48.748;2.222;2022-10-18T13:58:20;7.32;;;1.70;;
29344;SDS011;16339;48.748;2.222;2022-10-18T14:00:58;3.17;;;1.45;;
29344;SDS011;16339;48.748;2.222;2022-10-18T14:03:44;2.78;;;1.63;;
29344;SDS011;16339;48.748;2.222;2022-10-18T14:06:34;2.63;;;1.85;;
29344;SDS011;16339;48.748;2.222;2022-10-18T14:09:05;6.07;;;2.05;;
29344;SDS011;16339;48.748;2.222;2022-10-18T14:11:43;5.63;;;2.38;;
29344;SDS011;16339;48.748;2.222;2022-10-18T14:14:15;3.40;;;2.05;;
29344;SDS011;16339;48.748;2.222;2022-10-18T14:16:49;4.38;;;2.17;;
29344;SDS011;16339;48.748;2.222;2022-10-18T14:19:29;3.83;;;2.03;;
29344;SDS011;16339;48.748;2.222;2022-10-18T14:22:08;4.68;;;1.85;;
29344;SDS011;16339;48.748;2.222;2022-10-18T14:24:41;5.05;;;1.95;;
29344;SDS011;16339;48.748;2.222;2022-10-18T14:27:15;3.55;;;1.75;;
29344;SDS011;16339;48.748;2.222;2022-10-18T14:29:45;8.02;;;1.88;;
29344;SDS011;16339;48.748;2.222;2022-10-18T14:32:21;4.20;;;1.80;;
29344;SDS011;16339;48.748;2.222;2022-10-18T14:34:52;5.78;;;1.80;;
29344;SDS011;16339;48.748;2.222;2022-10-18T14:37:27;2.35;;;1.70;;
29344;SDS011;16339;48.748;2.222;2022-10-18T14:39:59;6.50;;;2.22;;
29344;SDS011;16339;48.748;2.222;2022-10-18T14:42:28;2.90;;;1.70;;
29344;SDS011;16339;48.748;2.222;2022-10-18T14:44:57;11.55;;;2.00;;
29344;SDS011;16339;48.748;2.222;2022-10-18T14:47:26;4.22;;;1.70;;
29344;SDS011;16339;48.748;2.222;2022-10-18T14:50:00;6.55;;;2.20;;
29344;SDS011;16339;48.748;2.222;2022-10-18T14:52:32;3.50;;;1.75;;
29344;SDS011;16339;48.748;2.222;2022-10-18T14:55:01;4.18;;;2.17;;
29344;SDS011;16339;48.748;2.222;2022-10-18T14:57:31;4.03;;;1.90;;
29344;SDS011;16339;48.748;2.222;2022-10-18T15:00:03;8.93;;;2.42;;
29344;SDS011;16339;48.748;2.222;2022-10-18T15:02:35;3.92;;;2.10;;
29344;SDS011;16339;48.748;2.222;2022-10-18T15:05:07;6.03;;;2.30;;
29344;SDS011;16339;48.748;2.222;2022-10-18T15:07:43;6.93;;;2.63;;
29344;SDS011;16339;48.748;2.222;2022-10-18T15:10:13;6.40;;;2.40;;
29344;SDS011;16339;48.748;2.222;2022-10-18T15:19:22;7.50;;;2.60;;
29344;SDS011;16339;48.748;2.222;2022-10-18T15:21:55;6.53;;;2.58;;
29344;SDS011;16339;48.748;2.222;2022-10-18T15:24:32;5.10;;;2.78;;
29344;SDS011;16339;48.748;2.222;2022-10-18T15:27:09;5.38;;;2.70;;
29344;SDS011;16339;48.748;2.222;2022-10-18T15:29:41;3.58;;;2.65;;
29344;SDS011;16339;48.748;2.222;2022-10-18T15:32:14;3.40;;;1.95;;
29344;SDS011;16339;48.748;2.222;2022-10-18T15:34:46;4.32;;;2.28;;
29344;SDS011;16339;48.748;2.222;2022-10-18T15:37:16;8.15;;;2.40;;
29344;SDS011;16339;48.748;2.222;2022-10-18T15:42:57;21.38;;;8.18;;
29344;SDS011;16339;48.748;2.222;2022-10-18T15:45:28;14.20;;;5.47;;
29344;SDS011;16339;48.748;2.222;2022-10-18T15:48:00;6.20;;;2.50;;
29344;SDS011;16339;48.748;2.222;2022-10-18T15:50:38;5.88;;;2.35;;